Time;durP1;ratioP1;P1;durP2;ratioP2;P2;SDS_P1;SDS_P2;PMS_P1;PMS_P2;Temp;Humidity;BMP_temperature;BMP_pressure;BME280_temperature;BME280_humidity;BME280_pressure;Samples;Min_cycle;Max_cycle;Signal;HPM_P1;HPM_P2
2023/10/10 00:00:23;;;;;;;;;;;20.70;75.90;;;;;;4955605;28;95065;-38
2023/10/10 00:02:51;;;;;;;;;;;20.70;76.10;;;;;;4951476;28;97388;-39
2023/10/10 00:05:18;;;;;;;;;;;20.70;76.00;;;;;;4948113;28;95778;-39
2023/10/10 00:07:44;;;;;;;;;;;20.70;76.10;;;;;;4955929;28;94191;-38
2023/10/10 00:10:15;;;;;;;;;;;20.60;76.20;;;;;;4956054;28;95309;-38
2023/10/10 00:12:41;;;;;;;;;;;20.60;76.10;;;;;;4955975;28;95017;-38
2023/10/10 00:15:12;;;;;;;;;;;20.60;76.20;;;;;;4953448;28;95636;-39
2023/10/10 00:17:38;;;;;;;;;;;20.60;76.10;;;;;;4954403;28;95685;-39
2023/10/10 00:20:16;;;;;;;;;;;20.60;76.00;;;;;;4959056;28;99233;-38
2023/10/10 00:22:46;;;;;;;;;;;20.60;75.90;;;;;;4953571;28;94812;-38
2023/10/10 00:25:12;;;;;;;;;;;20.60;75.90;;;;;;4955736;28;95320;-38
2023/10/10 00:27:39;;;;;;;;;;;20.60;75.90;;;;;;4955124;28;95353;-38
2023/10/10 00:30:06;;;;;;;;;;;20.60;75.80;;;;;;4950832;28;94626;-39
2023/10/10 00:32:35;;;;;;;;;;;20.60;75.80;;;;;;4954150;28;94328;-38
2023/10/10 00:35:05;;;;;;;;;;;20.60;75.80;;;;;;4952529;28;94630;-38
2023/10/10 00:37:34;;;;;;;;;;;20.60;75.70;;;;;;4956818;28;95257;-38
2023/10/10 00:40:14;;;;;;;;;;;20.60;75.60;;;;;;4949381;28;95743;-39
2023/10/10 00:42:42;;;;;;;;;;;20.60;75.80;;;;;;4952631;28;95295;-40
2023/10/10 00:45:15;;;;;;;;;;;20.50;75.60;;;;;;4951611;28;95441;-39
2023/10/10 00:47:43;;;;;;;;;;;20.50;75.60;;;;;;4943294;28;95392;-38
2023/10/10 00:50:15;;;;;;;;;;;20.50;75.70;;;;;;4958789;28;94761;-38
2023/10/10 00:52:42;;;;;;;;;;;20.50;75.60;;;;;;4954400;28;94537;-38
2023/10/10 00:55:09;;;;;;;;;;;20.50;75.60;;;;;;4953134;28;96466;-39
2023/10/10 00:57:35;;;;;;;;;;;20.50;75.60;;;;;;4952935;28;95405;-38
2023/10/10 01:00:07;;;;;;;;;;;20.50;75.60;;;;;;4952456;28;96577;-38
2023/10/10 01:02:34;;;;;;;;;;;20.50;75.50;;;;;;4957140;28;94714;-39
2023/10/10 01:05:05;;;;;;;;;;;20.50;75.60;;;;;;4950531;28;95982;-38
2023/10/10 01:07:34;;;;;;;;;;;20.50;75.60;;;;;;4956574;28;96193;-38
2023/10/10 01:10:11;;;;;;;;;;;20.50;75.60;;;;;;4947158;28;96935;-39
2023/10/10 01:12:39;;;;;;;;;;;20.50;75.60;;;;;;4949982;28;94819;-39
2023/10/10 01:15:34;;;;;;;;;;;20.40;75.50;;;;;;4949280;28;95497;-38
2023/10/10 01:17:59;;;;;;;;;;;20.40;75.60;;;;;;4955756;28;95148;-38
2023/10/10 01:20:34;;;;;;;;;;;20.40;75.60;;;;;;4949879;28;95271;-39
2023/10/10 01:23:00;;;;;;;;;;;20.40;75.50;;;;;;4957991;28;94925;-38
2023/10/10 01:28:13;;;;;;;;;;;20.40;75.40;;;;;;4953244;28;95981;-38
2023/10/10 01:30:57;;;;;;;;;;;20.40;75.30;;;;;;4950939;28;97232;-38
2023/10/10 01:33:28;;;;;;;;;;;20.40;75.30;;;;;;4953125;28;95245;-38
2023/10/10 01:35:55;;;;;;;;;;;20.40;75.30;;;;;;4952382;28;95951;-38
2023/10/10 01:38:35;;;;;;;;;;;20.40;75.30;;;;;;4953716;28;94733;-38
2023/10/10 01:41:05;;;;;;;;;;;20.40;75.30;;;;;;4952893;28;95266;-39
2023/10/10 01:43:32;;;;;;;;;;;20.40;75.30;;;;;;4952228;28;95132;-39
2023/10/10 01:46:18;;;;;;;;;;;20.30;75.20;;;;;;4949817;28;96858;-38
2023/10/10 01:48:43;;;;;;;;;;;20.30;75.10;;;;;;4949327;28;94542;-39
2023/10/10 01:51:15;;;;;;;;;;;20.30;75.10;;;;;;4951147;28;95031;-38
2023/10/10 01:53:41;;;;;;;;;;;20.30;75.20;;;;;;4951477;28;95967;-38
2023/10/10 01:56:07;;;;;;;;;;;20.30;75.30;;;;;;4953353;28;96024;-38
2023/10/10 01:58:36;;;;;;;;;;;20.30;75.30;;;;;;4951619;28;94816;-38
2023/10/10 02:01:16;;;;;;;;;;;20.30;75.20;;;;;;4956732;28;94764;-38
2023/10/10 02:03:42;;;;;;;;;;;20.30;75.20;;;;;;4954245;28;95119;-38
2023/10/10 02:06:13;;;;;;;;;;;20.30;75.20;;;;;;4960533;28;95326;-38
2023/10/10 02:08:40;;;;;;;;;;;20.30;75.20;;;;;;4952187;28;95411;-38
2023/10/10 02:11:08;;;;;;;;;;;20.30;75.10;;;;;;4950091;28;95466;-38
2023/10/10 02:13:33;;;;;;;;;;;20.30;75.10;;;;;;4957240;28;94254;-38
2023/10/10 02:16:01;;;;;;;;;;;20.30;75.00;;;;;;4955455;28;94689;-39
2023/10/10 02:18:44;;;;;;;;;;;20.20;75.00;;;;;;4953537;28;94795;-38
2023/10/10 02:21:16;;;;;;;;;;;20.20;75.00;;;;;;4951917;28;95676;-39
2023/10/10 02:23:46;;;;;;;;;;;20.20;75.00;;;;;;4956474;28;95966;-38
2023/10/10 02:26:23;;;;;;;;;;;20.20;75.00;;;;;;4949383;28;95075;-38
2023/10/10 02:29:16;;;;;;;;;;;20.20;75.00;;;;;;4951085;28;96994;-38
2023/10/10 02:31:40;;;;;;;;;;;20.20;75.00;;;;;;4956500;28;95087;-38
2023/10/10 02:34:10;;;;;;;;;;;20.20;74.90;;;;;;4957340;28;95224;-38
2023/10/10 02:36:35;;;;;;;;;;;20.20;75.00;;;;;;4960221;28;96508;-38
2023/10/10 02:41:48;;;;;;;;;;;20.20;74.90;;;;;;4944314;28;96999;-38
2023/10/10 02:44:26;;;;;;;;;;;20.20;74.80;;;;;;4952776;28;96137;-39
2023/10/10 02:46:53;;;;;;;;;;;20.20;74.90;;;;;;4958579;28;96615;-38
2023/10/10 02:51:56;;;;;;;;;;;20.20;74.90;;;;;;4956646;28;94776;-39
2023/10/10 02:56:56;;;;;;;;;;;20.10;74.80;;;;;;4959298;28;95565;-38
2023/10/10 02:59:30;;;;;;;;;;;20.10;74.70;;;;;;4951457;28;95050;-38
2023/10/10 03:01:57;;;;;;;;;;;20.10;74.70;;;;;;4952988;28;96679;-39
2023/10/10 03:07:09;;;;;;;;;;;20.10;74.50;;;;;;4953476;28;96104;-39
2023/10/10 03:09:42;;;;;;;;;;;20.20;74.70;;;;;;4959442;28;95808;-38
2023/10/10 03:12:17;;;;;;;;;;;20.10;74.50;;;;;;4945441;28;95747;-38
2023/10/10 03:14:43;;;;;;;;;;;20.10;74.70;;;;;;4954999;28;94730;-38
2023/10/10 03:17:31;;;;;;;;;;;20.10;74.70;;;;;;4959537;28;95086;-38
2023/10/10 03:25:36;;;;;;;;;;;20.10;74.70;;;;;;4953109;28;94979;-38
2023/10/10 03:28:18;;;;;;;;;;;20.10;74.70;;;;;;4953564;28;95137;-38
2023/10/10 03:30:53;;;;;;;;;;;20.10;74.70;;;;;;4954417;28;94440;-39
2023/10/10 03:33:44;;;;;;;;;;;20.00;74.70;;;;;;4955664;28;94845;-38
2023/10/10 05:25:23;;;;;;;;;;;19.80;75.60;;;;;;4945126;28;102936;-39
2023/10/10 05:27:48;;;;;;;;;;;19.80;75.60;;;;;;4946536;28;96394;-38
2023/10/10 05:30:23;;;;;;;;;;;19.80;75.50;;;;;;4938576;28;95794;-39
2023/10/10 05:33:04;;;;;;;;;;;19.70;75.50;;;;;;4947219;28;94940;-38
2023/10/10 05:35:30;;;;;;;;;;;19.70;75.80;;;;;;4952045;28;94734;-38
2023/10/10 05:37:56;;;;;;;;;;;19.80;75.80;;;;;;4941573;28;94851;-38
2023/10/10 05:40:24;;;;;;;;;;;19.80;75.90;;;;;;4943442;28;95305;-38
2023/10/10 05:42:51;;;;;;;;;;;19.70;76.00;;;;;;4944066;28;95856;-38
2023/10/10 05:45:18;;;;;;;;;;;19.70;76.30;;;;;;4942966;28;93718;-38
2023/10/10 05:47:44;;;;;;;;;;;19.70;76.40;;;;;;4949671;28;95980;-38
2023/10/10 05:50:10;;;;;;;;;;;19.70;76.30;;;;;;4948874;28;94897;-38
2023/10/10 05:52:38;;;;;;;;;;;19.70;76.20;;;;;;4948771;28;95864;-38
2023/10/10 05:55:05;;;;;;;;;;;19.70;76.00;;;;;;4944911;28;95067;-39
2023/10/10 05:57:33;;;;;;;;;;;19.70;76.00;;;;;;4959454;28;94842;-38
2023/10/10 05:59:59;;;;;;;;;;;19.70;76.00;;;;;;4944980;28;94670;-38
2023/10/10 06:02:27;;;;;;;;;;;19.70;76.10;;;;;;4958534;28;94817;-38
2023/10/10 06:04:53;;;;;;;;;;;19.70;76.00;;;;;;4946870;28;95981;-38
2023/10/10 06:07:20;;;;;;;;;;;19.70;75.90;;;;;;4955106;28;99174;-38
2023/10/10 06:09:48;;;;;;;;;;;19.70;75.90;;;;;;4946384;28;94202;-38
2023/10/10 06:12:15;;;;;;;;;;;19.70;75.90;;;;;;4952292;28;95434;-38
2023/10/10 06:14:42;;;;;;;;;;;19.60;75.90;;;;;;4954897;28;94713;-39
2023/10/10 06:17:08;;;;;;;;;;;19.70;76.00;;;;;;4947548;28;95855;-38
2023/10/10 06:19:34;;;;;;;;;;;19.70;76.00;;;;;;4949934;28;94747;-39
2023/10/10 06:22:02;;;;;;;;;;;19.70;75.90;;;;;;4951718;28;94687;-38
2023/10/10 06:24:28;;;;;;;;;;;19.70;75.80;;;;;;4957785;28;95407;-38
2023/10/10 06:27:00;;;;;;;;;;;19.70;75.80;;;;;;4933865;28;97253;-39
2023/10/10 06:29:29;;;;;;;;;;;19.70;75.70;;;;;;4954484;28;94741;-38
2023/10/10 06:31:56;;;;;;;;;;;19.70;75.70;;;;;;4951981;28;97080;-38
2023/10/10 06:34:22;;;;;;;;;;;19.70;75.70;;;;;;4944180;28;93650;-38
2023/10/10 06:36:49;;;;;;;;;;;19.70;75.70;;;;;;4953323;28;96136;-38
2023/10/10 06:41:47;;;;;;;;;;;19.70;75.60;;;;;;4961017;28;99048;-38
2023/10/10 06:44:17;;;;;;;;;;;19.60;75.50;;;;;;4948615;28;95141;-38
2023/10/10 06:46:47;;;;;;;;;;;19.70;75.50;;;;;;4950984;28;95106;-39
2023/10/10 06:49:12;;;;;;;;;;;19.70;75.40;;;;;;4951516;28;96397;-38
2023/10/10 06:51:41;;;;;;;;;;;19.70;75.40;;;;;;4951645;28;94759;-38
2023/10/10 06:54:19;;;;;;;;;;;19.70;75.30;;;;;;4951743;28;95661;-39
2023/10/10 06:57:04;;;;;;;;;;;19.70;76.00;;;;;;4948176;28;95881;-39
2023/10/10 06:59:30;;;;;;;;;;;19.70;75.20;;;;;;4952557;28;95163;-38
2023/10/10 07:04:40;;;;;;;;;;;19.70;75.80;;;;;;4947115;28;95710;-38
2023/10/10 07:07:08;;;;;;;;;;;19.70;75.00;;;;;;4951620;28;95745;-39
2023/10/10 07:09:36;;;;;;;;;;;19.70;75.00;;;;;;4950851;28;95752;-38
2023/10/10 07:12:11;;;;;;;;;;;19.70;75.00;;;;;;4954066;28;97761;-38
2023/10/10 07:14:53;;;;;;;;;;;19.70;74.90;;;;;;4952042;28;94824;-38
2023/10/10 07:17:26;;;;;;;;;;;19.70;74.80;;;;;;4958278;28;96687;-39
2023/10/10 07:22:28;;;;;;;;;;;19.80;74.70;;;;;;4956353;28;96960;-38
2023/10/10 07:25:06;;;;;;;;;;;19.80;74.80;;;;;;4953980;28;93844;-38
2023/10/10 07:27:41;;;;;;;;;;;19.80;74.60;;;;;;4958185;28;95550;-39
2023/10/10 07:30:16;;;;;;;;;;;19.80;74.50;;;;;;4949133;28;96546;-39
2023/10/10 07:32:48;;;;;;;;;;;19.80;74.40;;;;;;4954264;28;96109;-38
2023/10/10 07:35:17;;;;;;;;;;;19.80;74.40;;;;;;4956633;28;96256;-40
2023/10/10 07:37:45;;;;;;;;;;;19.80;74.40;;;;;;4958277;28;95319;-39
2023/10/10 07:42:40;;;;;;;;;;;19.80;74.30;;;;;;4952973;28;97028;-39
2023/10/10 07:45:15;;;;;;;;;;;19.80;74.30;;;;;;4949432;28;98229;-39
2023/10/10 07:50:28;;;;;;;;;;;19.80;74.20;;;;;;4947862;28;94097;-38
2023/10/10 07:52:53;;;;;;;;;;;19.80;74.20;;;;;;4954819;28;94738;-39
2023/10/10 07:55:19;;;;;;;;;;;19.90;74.40;;;;;;4948411;28;94748;-38
2023/10/10 07:57:59;;;;;;;;;;;19.80;74.20;;;;;;4950340;28;96799;-39
2023/10/10 08:00:38;;;;;;;;;;;19.90;74.30;;;;;;4953737;28;94713;-39
2023/10/10 08:03:07;;;;;;;;;;;19.80;74.10;;;;;;4949853;28;97455;-38
2023/10/10 08:05:32;;;;;;;;;;;19.90;74.10;;;;;;4951477;28;94806;-39
2023/10/10 08:08:04;;;;;;;;;;;19.90;74.00;;;;;;4951557;28;95513;-39
2023/10/10 08:10:35;;;;;;;;;;;19.90;74.00;;;;;;4953993;28;96174;-40
2023/10/10 08:13:00;;;;;;;;;;;19.90;74.20;;;;;;4952331;28;95228;-39
2023/10/10 08:15:26;;;;;;;;;;;19.90;74.10;;;;;;4947971;28;96374;-39
2023/10/10 08:17:54;;;;;;;;;;;19.90;74.00;;;;;;4963950;28;95464;-39
2023/10/10 08:23:24;;;;;;;;;;;20.00;73.90;;;;;;4915964;28;95883;-38
2023/10/10 08:25:53;;;;;;;;;;;19.90;73.80;;;;;;4948703;28;95365;-38
2023/10/10 08:28:21;;;;;;;;;;;20.00;74.00;;;;;;4938938;28;95867;-39
2023/10/10 08:30:48;;;;;;;;;;;20.00;73.90;;;;;;4948157;28;95840;-38
2023/10/10 08:33:14;;;;;;;;;;;19.90;73.90;;;;;;4947684;28;95953;-39
2023/10/10 08:35:39;;;;;;;;;;;19.90;74.00;;;;;;4951643;28;94782;-39
2023/10/10 08:38:05;;;;;;;;;;;20.00;73.90;;;;;;4947881;28;96085;-39
2023/10/10 08:40:33;;;;;;;;;;;19.90;74.00;;;;;;4950723;28;96022;-38
2023/10/10 08:42:59;;;;;;;;;;;20.00;73.80;;;;;;4960085;28;94506;-40
2023/10/10 08:45:25;;;;;;;;;;;20.00;73.70;;;;;;4947881;28;94920;-39
2023/10/10 08:47:52;;;;;;;;;;;20.00;73.90;;;;;;4957793;28;95968;-39
2023/10/10 08:50:18;;;;;;;;;;;20.00;73.80;;;;;;4950486;28;99318;-39
2023/10/10 08:52:43;;;;;;;;;;;20.00;73.70;;;;;;4958136;28;94775;-39
2023/10/10 08:55:10;;;;;;;;;;;20.00;73.70;;;;;;4952336;28;96232;-39
2023/10/10 08:57:38;;;;;;;;;;;20.00;73.70;;;;;;4953316;28;95284;-39
2023/10/10 09:00:11;;;;;;;;;;;20.00;73.70;;;;;;4951685;28;96363;-38
2023/10/10 09:02:37;;;;;;;;;;;20.00;73.80;;;;;;4955307;28;97457;-40
2023/10/10 09:05:07;;;;;;;;;;;20.00;73.90;;;;;;4949931;28;94466;-39
2023/10/10 09:07:34;;;;;;;;;;;20.10;73.80;;;;;;4954495;28;94707;-38
2023/10/10 09:10:06;;;;;;;;;;;20.00;73.70;;;;;;4957633;28;96112;-39
2023/10/10 09:12:33;;;;;;;;;;;20.10;73.70;;;;;;4946994;28;100230;-38
2023/10/10 09:15:09;;;;;;;;;;;20.00;73.70;;;;;;4955183;28;95174;-39
2023/10/10 09:17:35;;;;;;;;;;;20.10;73.80;;;;;;4960734;28;95839;-38
2023/10/10 09:20:17;;;;;;;;;;;20.10;73.80;;;;;;4949302;28;94663;-38
2023/10/10 09:22:44;;;;;;;;;;;20.10;73.70;;;;;;4952253;28;94814;-38
2023/10/10 09:25:19;;;;;;;;;;;20.10;73.70;;;;;;4949311;28;95365;-39
2023/10/10 09:28:00;;;;;;;;;;;20.10;73.70;;;;;;4953656;28;94640;-40
2023/10/10 09:30:33;;;;;;;;;;;20.10;73.70;;;;;;4953888;28;95324;-38
2023/10/10 09:33:12;;;;;;;;;;;20.10;73.70;;;;;;4946945;28;95842;-38
2023/10/10 09:35:39;;;;;;;;;;;20.10;74.00;;;;;;4951326;28;94663;-38
2023/10/10 09:38:12;;;;;;;;;;;20.20;73.80;;;;;;4950901;28;96228;-38
2023/10/10 09:40:40;;;;;;;;;;;20.20;73.80;;;;;;4950899;28;98083;-39
2023/10/10 09:43:12;;;;;;;;;;;20.20;73.80;;;;;;4950043;28;96318;-38
2023/10/10 09:45:55;;;;;;;;;;;20.10;73.90;;;;;;4953373;28;97662;-39
2023/10/10 09:51:15;;;;;;;;;;;20.20;74.00;;;;;;4959361;28;96559;-39
2023/10/10 09:53:46;;;;;;;;;;;20.20;73.90;;;;;;4951318;28;94974;-39
2023/10/10 09:56:15;;;;;;;;;;;20.20;73.90;;;;;;4951485;28;94760;-39
2023/10/10 09:58:42;;;;;;;;;;;20.30;73.90;;;;;;4948499;28;98045;-38
2023/10/10 10:01:18;;;;;;;;;;;20.30;73.90;;;;;;4944585;28;95111;-40
2023/10/10 10:03:59;;;;;;;;;;;20.30;73.80;;;;;;4949062;28;95840;-39
2023/10/10 10:06:34;;;;;;;;;;;20.30;73.70;;;;;;4946072;28;94471;-40
2023/10/10 10:09:09;;;;;;;;;;;20.40;73.80;;;;;;4949421;28;94808;-39
2023/10/10 10:11:51;;;;;;;;;;;20.40;73.60;;;;;;4949555;28;98060;-38
2023/10/10 10:14:35;;;;;;;;;;;20.40;73.60;;;;;;4943856;28;98119;-38
2023/10/10 10:17:12;;;;;;;;;;;20.50;73.60;;;;;;4948792;28;95198;-39
2023/10/10 10:19:45;;;;;;;;;;;20.50;73.30;;;;;;4957439;28;95241;-38
2023/10/10 10:22:17;;;;;;;;;;;20.60;73.40;;;;;;4950937;28;95600;-39
2023/10/10 10:24:44;;;;;;;;;;;20.60;73.10;;;;;;4956398;28;95351;-39
2023/10/10 10:27:24;;;;;;;;;;;20.60;73.10;;;;;;4960671;28;94692;-38
2023/10/10 10:30:35;;;;;;;;;;;20.70;73.10;;;;;;4953806;28;98613;-38
2023/10/10 10:32:58;;;;;;;;;;;20.70;73.00;;;;;;4956860;28;96257;-38
2023/10/10 10:35:44;;;;;;;;;;;20.70;72.90;;;;;;4944930;28;94638;-39
2023/10/10 10:38:09;;;;;;;;;;;20.80;72.80;;;;;;4945994;28;95211;-38
2023/10/10 10:43:15;;;;;;;;;;;20.80;72.70;;;;;;4955729;28;94232;-38
2023/10/10 10:45:44;;;;;;;;;;;20.80;72.70;;;;;;4944267;28;94800;-39
2023/10/10 10:48:29;;;;;;;;;;;20.90;72.80;;;;;;4939351;28;94948;-39
2023/10/10 10:51:01;;;;;;;;;;;20.90;72.80;;;;;;4949509;28;95476;-38
2023/10/10 10:53:35;;;;;;;;;;;20.90;72.70;;;;;;4951486;28;94607;-39
2023/10/10 10:59:11;;;;;;;;;;;21.00;72.70;;;;;;4955313;28;94618;-38
2023/10/10 11:01:41;;;;;;;;;;;21.00;72.50;;;;;;4949644;28;96007;-38
2023/10/10 11:04:14;;;;;;;;;;;21.00;72.60;;;;;;4948463;28;96493;-46
2023/10/10 11:06:50;;;;;;;;;;;21.10;72.50;;;;;;4963808;28;95160;-46
2023/10/10 11:09:28;;;;;;;;;;;21.10;72.40;;;;;;4949047;28;94414;-45
2023/10/10 11:11:58;;;;;;;;;;;21.20;72.40;;;;;;4949791;28;95666;-46
2023/10/10 11:14:24;;;;;;;;;;;21.20;72.30;;;;;;4950860;28;94031;-46
2023/10/10 11:16:59;;;;;;;;;;;21.20;72.40;;;;;;4949516;28;94768;-46
2023/10/10 11:21:53;;;;;;;;;;;21.20;72.10;;;;;;4949700;28;95599;-45
2023/10/10 11:24:26;;;;;;;;;;;21.30;72.10;;;;;;4954419;28;95605;-46
2023/10/10 11:32:29;;;;;;;;;;;21.40;72.10;;;;;;4953288;28;95215;-46
2023/10/10 11:35:11;;;;;;;;;;;21.40;72.00;;;;;;4956865;28;94372;-46
2023/10/10 11:37:42;;;;;;;;;;;21.50;72.00;;;;;;4945126;28;94653;-46
2023/10/10 11:42:52;;;;;;;;;;;21.50;71.90;;;;;;4955861;28;95124;-46
2023/10/10 11:45:18;;;;;;;;;;;21.50;71.90;;;;;;4942948;28;94693;-46
2023/10/10 11:47:44;;;;;;;;;;;21.60;71.90;;;;;;4947705;28;95712;-46
2023/10/10 11:50:15;;;;;;;;;;;21.60;71.80;;;;;;4945261;28;96793;-46
2023/10/10 11:52:53;;;;;;;;;;;21.60;71.80;;;;;;4954579;28;95158;-46
2023/10/10 11:55:20;;;;;;;;;;;21.60;71.70;;;;;;4939386;28;94054;-46
2023/10/10 11:57:48;;;;;;;;;;;21.70;71.80;;;;;;4952189;28;94733;-46
2023/10/10 12:00:21;;;;;;;;;;;21.70;71.60;;;;;;4950707;28;94610;-46
2023/10/10 12:02:48;;;;;;;;;;;21.70;71.60;;;;;;4950796;28;94646;-47
2023/10/10 12:07:54;;;;;;;;;;;21.80;71.60;;;;;;4946016;28;98005;-47
2023/10/10 12:10:24;;;;;;;;;;;21.80;71.50;;;;;;4942655;28;95462;-47
2023/10/10 12:12:52;;;;;;;;;;;21.80;71.40;;;;;;4961167;28;95741;-47
2023/10/10 12:15:19;;;;;;;;;;;21.80;71.50;;;;;;4952318;28;95336;-47
2023/10/10 12:17:45;;;;;;;;;;;21.90;71.50;;;;;;4947590;28;100514;-47
2023/10/10 12:20:10;;;;;;;;;;;21.90;71.50;;;;;;4953240;28;97042;-47
2023/10/10 12:22:38;;;;;;;;;;;21.90;71.40;;;;;;4956789;28;95917;-47
2023/10/10 12:25:04;;;;;;;;;;;21.90;71.30;;;;;;4951194;28;95000;-47
2023/10/10 12:27:30;;;;;;;;;;;22.00;71.30;;;;;;4951187;28;96641;-47
2023/10/10 12:29:58;;;;;;;;;;;22.00;71.30;;;;;;4958119;28;95112;-47
2023/10/10 12:32:26;;;;;;;;;;;22.00;71.30;;;;;;4950688;28;95162;-47
2023/10/10 12:34:52;;;;;;;;;;;22.00;71.30;;;;;;4951311;28;95118;-47
2023/10/10 12:37:17;;;;;;;;;;;22.00;71.30;;;;;;4951916;28;95995;-47
2023/10/10 12:39:43;;;;;;;;;;;22.10;71.30;;;;;;4951308;28;94793;-47
2023/10/10 12:42:09;;;;;;;;;;;22.10;71.20;;;;;;4948434;28;96464;-47
2023/10/10 12:44:34;;;;;;;;;;;22.10;71.10;;;;;;4955253;28;95892;-47
2023/10/10 12:47:06;;;;;;;;;;;22.10;71.10;;;;;;4952304;28;97446;-47
2023/10/10 12:49:37;;;;;;;;;;;22.10;71.20;;;;;;4954106;28;94633;-46
2023/10/10 12:52:11;;;;;;;;;;;22.20;71.10;;;;;;4951687;28;94917;-47
2023/10/10 12:54:37;;;;;;;;;;;22.20;71.20;;;;;;4950092;28;94690;-47
2023/10/10 12:57:06;;;;;;;;;;;22.20;71.20;;;;;;4952919;28;96031;-47
2023/10/10 12:59:34;;;;;;;;;;;22.20;71.10;;;;;;4951014;28;94652;-47
2023/10/10 13:02:03;;;;;;;;;;;22.30;71.30;;;;;;4952671;28;97319;-47
2023/10/10 13:04:32;;;;;;;;;;;22.30;71.20;;;;;;4933319;28;94540;-47
2023/10/10 13:07:02;;;;;;;;;;;22.30;71.20;;;;;;4956550;28;94622;-47
2023/10/10 13:09:28;;;;;;;;;;;22.30;71.10;;;;;;4945587;28;94904;-47
2023/10/10 13:11:56;;;;;;;;;;;22.30;71.10;;;;;;4952736;28;94691;-47
2023/10/10 13:14:24;;;;;;;;;;;22.30;71.10;;;;;;4964101;28;94571;-47
2023/10/10 13:19:20;;;;;;;;;;;22.40;71.00;;;;;;4950063;28;93851;-46
2023/10/10 13:21:52;;;;;;;;;;;22.40;71.10;;;;;;4956689;28;97624;-47
2023/10/10 13:24:18;;;;;;;;;;;22.40;71.00;;;;;;4947863;28;98211;-47
2023/10/10 13:26:50;;;;;;;;;;;22.40;71.10;;;;;;4956364;28;95874;-47
2023/10/10 13:29:16;;;;;;;;;;;22.50;71.00;;;;;;4943515;28;95122;-47
2023/10/10 13:31:49;;;;;;;;;;;22.50;71.10;;;;;;4945064;28;94398;-47
2023/10/10 13:34:16;;;;;;;;;;;22.50;71.00;;;;;;4950845;28;98760;-47
2023/10/10 13:36:42;;;;;;;;;;;22.50;71.10;;;;;;4948010;28;95891;-47
2023/10/10 13:39:09;;;;;;;;;;;22.50;71.00;;;;;;4947036;28;95723;-47
2023/10/10 13:41:35;;;;;;;;;;;22.50;70.90;;;;;;4953194;28;94741;-47
2023/10/10 13:44:02;;;;;;;;;;;22.60;71.00;;;;;;4959254;28;94046;-47
2023/10/10 13:46:32;;;;;;;;;;;22.60;71.00;;;;;;4945517;28;96003;-47
2023/10/10 13:48:58;;;;;;;;;;;22.60;71.10;;;;;;4947081;28;95329;-47
2023/10/10 13:51:27;;;;;;;;;;;22.50;70.90;;;;;;4950170;28;96379;-47
2023/10/10 13:53:55;;;;;;;;;;;22.60;70.80;;;;;;4945833;28;94992;-47
2023/10/10 13:56:21;;;;;;;;;;;22.60;70.90;;;;;;4949155;28;94130;-47
2023/10/10 13:58:47;;;;;;;;;;;22.60;70.60;;;;;;4949836;28;95109;-47
2023/10/10 14:03:45;;;;;;;;;;;22.60;70.70;;;;;;4951868;28;100660;-47
2023/10/10 14:06:16;;;;;;;;;;;22.60;70.70;;;;;;4949379;28;96986;-47
2023/10/10 14:08:47;;;;;;;;;;;22.60;70.60;;;;;;4961954;28;94043;-47
2023/10/10 14:11:22;;;;;;;;;;;22.60;70.70;;;;;;4958814;28;98686;-47
2023/10/10 14:13:49;;;;;;;;;;;22.60;70.50;;;;;;4947688;28;97062;-47
2023/10/10 14:16:15;;;;;;;;;;;22.70;70.60;;;;;;4938299;28;98221;-47
2023/10/10 14:18:47;;;;;;;;;;;22.70;70.50;;;;;;4945362;28;94068;-47
2023/10/10 14:21:13;;;;;;;;;;;22.70;70.30;;;;;;4943863;28;95937;-47
2023/10/10 14:23:39;;;;;;;;;;;22.70;70.30;;;;;;4938326;28;98516;-47
2023/10/10 14:26:14;;;;;;;;;;;22.70;70.30;;;;;;4949935;28;95203;-47
2023/10/10 14:28:40;;;;;;;;;;;22.70;70.50;;;;;;4945331;28;101818;-47
2023/10/10 14:31:11;;;;;;;;;;;22.80;70.40;;;;;;4950152;28;94882;-47
2023/10/10 14:33:39;;;;;;;;;;;22.70;70.30;;;;;;4952447;28;94007;-47
2023/10/10 14:36:05;;;;;;;;;;;22.70;70.30;;;;;;4948354;28;108628;-47
2023/10/10 14:38:31;;;;;;;;;;;22.70;70.20;;;;;;4950353;28;94693;-47
2023/10/10 14:40:57;;;;;;;;;;;22.70;70.10;;;;;;4947649;28;96447;-47
2023/10/10 14:43:22;;;;;;;;;;;22.70;70.20;;;;;;4953297;28;95064;-47
2023/10/10 14:45:48;;;;;;;;;;;22.70;70.90;;;;;;4948205;28;94453;-47
2023/10/10 14:48:20;;;;;;;;;;;22.80;70.30;;;;;;4948126;28;95183;-48
2023/10/10 14:50:52;;;;;;;;;;;22.70;70.30;;;;;;4943609;28;99407;-48
2023/10/10 14:53:24;;;;;;;;;;;22.70;70.30;;;;;;4955309;28;94632;-47
2023/10/10 14:55:52;;;;;;;;;;;22.70;70.20;;;;;;4947164;28;94538;-48
2023/10/10 14:58:21;;;;;;;;;;;22.70;70.20;;;;;;4945357;28;93735;-48
2023/10/10 15:00:49;;;;;;;;;;;22.70;70.20;;;;;;4954649;28;95201;-48
2023/10/10 15:03:15;;;;;;;;;;;22.70;70.20;;;;;;4939024;28;95981;-39
2023/10/10 15:05:47;;;;;;;;;;;22.70;70.20;;;;;;4948184;28;96018;-40
2023/10/10 15:08:13;;;;;;;;;;;22.80;70.00;;;;;;4947846;28;97473;-40
2023/10/10 15:10:40;;;;;;;;;;;22.80;70.00;;;;;;4944589;28;94700;-39
2023/10/10 15:13:08;;;;;;;;;;;22.80;70.10;;;;;;4944169;28;94459;-40
2023/10/10 15:15:34;;;;;;;;;;;22.80;70.00;;;;;;4938621;28;100171;-39
2023/10/10 15:18:00;;;;;;;;;;;22.70;69.90;;;;;;4941950;28;94906;-39
2023/10/10 15:20:29;;;;;;;;;;;22.70;70.20;;;;;;4928350;28;95336;-41
2023/10/10 15:22:55;;;;;;;;;;;22.70;70.30;;;;;;4943851;28;94434;-39
2023/10/10 15:25:24;;;;;;;;;;;22.80;70.20;;;;;;4924208;28;94901;-41
2023/10/10 15:27:53;;;;;;;;;;;22.80;70.30;;;;;;4946357;28;94744;-41
2023/10/10 15:30:18;;;;;;;;;;;22.70;70.00;;;;;;4947964;28;96147;-42
2023/10/10 15:32:47;;;;;;;;;;;22.80;70.20;;;;;;4932973;28;95158;-41
2023/10/10 15:35:13;;;;;;;;;;;22.70;70.10;;;;;;4958326;28;95893;-41
2023/10/10 15:37:42;;;;;;;;;;;22.70;70.20;;;;;;4949117;28;94752;-41
2023/10/10 15:40:20;;;;;;;;;;;22.80;70.40;;;;;;4952198;28;94811;-41
2023/10/10 15:42:50;;;;;;;;;;;22.80;70.40;;;;;;4942175;28;96648;-41
2023/10/10 15:45:20;;;;;;;;;;;22.80;70.60;;;;;;4922130;28;95094;-41
2023/10/10 15:47:49;;;;;;;;;;;22.80;70.50;;;;;;4945784;28;95271;-41
2023/10/10 15:50:16;;;;;;;;;;;22.80;70.50;;;;;;4946960;28;95333;-42
2023/10/10 15:52:43;;;;;;;;;;;22.80;70.60;;;;;;4931660;28;95334;-38
2023/10/10 15:55:11;;;;;;;;;;;22.80;70.70;;;;;;4948168;28;101676;-41
2023/10/10 15:57:36;;;;;;;;;;;22.90;70.90;;;;;;4947838;28;94937;-40
2023/10/10 16:00:10;;;;;;;;;;;22.90;70.90;;;;;;4952685;28;95160;-40
2023/10/10 16:02:35;;;;;;;;;;;22.90;71.20;;;;;;4951455;28;95502;-41
2023/10/10 16:05:01;;;;;;;;;;;22.80;71.60;;;;;;4948272;28;95493;-40
2023/10/10 16:07:29;;;;;;;;;;;22.80;72.30;;;;;;4954782;28;95092;-41
2023/10/10 16:09:55;;;;;;;;;;;22.90;72.40;;;;;;4950929;28;94976;-38
2023/10/10 16:12:21;;;;;;;;;;;22.90;72.30;;;;;;4953976;28;94618;-39
2023/10/10 16:14:47;;;;;;;;;;;22.90;71.90;;;;;;4953533;28;95276;-44
2023/10/10 16:17:15;;;;;;;;;;;22.80;71.70;;;;;;4943899;28;96599;-44
2023/10/10 16:19:42;;;;;;;;;;;22.90;72.20;;;;;;4951907;28;95974;-43
2023/10/10 16:22:12;;;;;;;;;;;22.80;71.60;;;;;;4951929;28;96368;-44
2023/10/10 16:24:39;;;;;;;;;;;22.70;70.90;;;;;;4953944;28;96174;-43
2023/10/10 16:27:05;;;;;;;;;;;22.60;71.00;;;;;;4948817;28;95537;-43
2023/10/10 16:29:33;;;;;;;;;;;22.50;70.90;;;;;;4943659;28;95433;-41
2023/10/10 16:31:59;;;;;;;;;;;22.40;70.90;;;;;;4951173;28;95232;-39
2023/10/10 16:34:26;;;;;;;;;;;22.40;71.10;;;;;;4947517;28;96828;-42
2023/10/10 16:36:52;;;;;;;;;;;22.50;71.30;;;;;;4954528;28;94524;-42
2023/10/10 16:39:18;;;;;;;;;;;22.40;71.20;;;;;;4937495;28;96330;-40
2023/10/10 16:41:44;;;;;;;;;;;22.40;71.90;;;;;;4941176;28;94978;-41
2023/10/10 16:44:14;;;;;;;;;;;22.40;71.30;;;;;;4946102;28;96166;-42
2023/10/10 16:46:40;;;;;;;;;;;22.50;71.50;;;;;;4924803;28;95544;-40
2023/10/10 16:49:06;;;;;;;;;;;22.40;71.30;;;;;;4944781;28;95163;-40
2023/10/10 16:51:31;;;;;;;;;;;22.40;71.50;;;;;;4950779;28;97882;-41
2023/10/10 16:53:57;;;;;;;;;;;22.30;71.60;;;;;;4948882;28;95683;-42
2023/10/10 16:56:22;;;;;;;;;;;22.30;71.70;;;;;;4958565;28;94548;-40
2023/10/10 16:58:51;;;;;;;;;;;22.30;71.80;;;;;;4945617;28;95300;-40
2023/10/10 17:01:20;;;;;;;;;;;22.30;71.90;;;;;;4956924;28;94338;-42
2023/10/10 17:03:49;;;;;;;;;;;22.20;71.90;;;;;;4949664;28;96584;-40
2023/10/10 17:06:22;;;;;;;;;;;22.20;71.90;;;;;;4954058;28;94664;-40
2023/10/10 17:08:48;;;;;;;;;;;22.20;71.90;;;;;;4947196;28;95696;-40
2023/10/10 17:11:16;;;;;;;;;;;22.20;72.00;;;;;;4956692;28;94788;-40
2023/10/10 17:13:42;;;;;;;;;;;22.20;72.10;;;;;;4950270;28;95723;-40
2023/10/10 17:16:11;;;;;;;;;;;22.20;72.10;;;;;;4955606;28;95720;-40
2023/10/10 17:18:43;;;;;;;;;;;22.20;72.10;;;;;;4953568;28;95209;-42
2023/10/10 17:21:18;;;;;;;;;;;22.20;72.10;;;;;;4949732;28;95189;-40